Time;durP1;ratioP1;P1;durP2;ratioP2;P2;SDS_P1;SDS_P2;PMS_P1;PMS_P2;Temp;Humidity;BMP_temperature;BMP_pressure;BME280_temperature;BME280_humidity;BME280_pressure;Samples;Min_cycle;Max_cycle;Signal;HPM_P1;HPM_P2
2023/05/15 00:01:20;;;;;;;27.65;6.57;;;;;;;7.80;60.03;100774.06;6072994;23;20014;-76
2023/05/15 00:03:50;;;;;;;19.65;6.70;;;;;;;7.80;60.02;100783.56;6063111;23;20400;-78
2023/05/15 00:06:23;;;;;;;17.73;5.95;;;;;;;7.69;60.11;100767.81;6098752;23;20320;-77
2023/05/15 00:08:49;;;;;;;16.35;6.30;;;;;;;7.60;59.88;100763.34;6098269;23;20431;-76
2023/05/15 00:11:22;;;;;;;15.07;5.90;;;;;;;7.71;60.13;100773.91;6073017;23;20022;-77
2023/05/15 00:13:54;;;;;;;18.13;6.95;;;;;;;7.69;60.27;100770.41;6026797;23;20027;-75
2023/05/15 00:16:24;;;;;;;17.40;7.55;;;;;;;7.73;60.46;100777.41;6070954;23;20030;-76
2023/05/15 00:18:54;;;;;;;16.45;7.63;;;;;;;7.77;60.41;100774.03;6072022;23;20030;-76
2023/05/15 00:21:56;;;;;;;18.17;7.28;;;;;;;7.79;60.11;100782.69;6071474;23;20022;-76
2023/05/15 00:24:26;;;;;;;;;;;;;;;7.78;60.34;100774.88;6095699;23;20026;-76
2023/05/15 00:26:59;;;;;;;23.88;7.40;;;;;;;7.73;60.08;100782.56;6097848;23;19995;-77
2023/05/15 00:29:34;;;;;;;13.15;6.75;;;;;;;7.75;60.21;100777.41;6072961;23;20026;-78
2023/05/15 00:33:00;;;;;;;15.63;7.85;;;;;;;7.67;60.61;100777.28;6069106;23;20033;-77
2023/05/15 00:36:02;;;;;;;;;;;;;;;7.75;60.87;100780.88;6073391;23;20451;-78
2023/05/15 00:38:55;;;;;;;22.20;7.65;;;;;;;7.53;60.41;100745.94;6097577;23;19939;-77
2023/05/15 00:42:05;;;;;;;20.17;9.05;;;;;;;7.66;60.70;100776.41;6070051;23;20023;-78
2023/05/15 00:45:15;;;;;;;21.23;8.25;;;;;;;7.72;60.85;100785.16;6072189;23;20447;-78
2023/05/15 00:48:15;;;;;;;15.93;7.35;;;;;;;7.64;60.69;100780.69;6094175;23;20022;-77
2023/05/15 00:50:44;;;;;;;23.90;9.80;;;;;;;7.69;60.61;100781.66;6071508;23;20022;-78
2023/05/15 00:53:11;;;;;;;17.63;7.47;;;;;;;7.68;60.69;100776.44;6096988;23;20446;-78
2023/05/15 00:55:41;;;;;;;20.13;9.20;;;;;;;7.67;60.99;100766.91;6068154;23;20342;-77
2023/05/15 00:59:00;;;;;;;16.48;10.50;;;;;;;7.75;61.03;100785.19;6069380;23;20026;-77
2023/05/15 01:01:51;;;;;;;19.92;10.18;;;;;;;7.74;61.13;100779.16;6076154;23;20100;-76
2023/05/15 01:04:18;;;;;;;17.85;9.45;;;;;;;7.65;60.79;100790.22;6047982;23;20023;-77
2023/05/15 01:07:00;;;;;;;17.83;10.75;;;;;;;7.57;61.42;100773.63;6084076;23;20026;-76
2023/05/15 01:09:31;;;;;;;23.50;10.57;;;;;;;7.69;61.80;100791.13;6071768;23;20030;-76
2023/05/15 01:12:04;;;;;;;23.40;12.07;;;;;;;7.60;61.25;100780.63;6050913;23;20030;-76
2023/05/15 01:14:44;;;;;;;29.77;10.30;;;;;;;7.58;61.27;100801.28;6097551;23;20081;-78
2023/05/15 01:17:15;;;;;;;21.70;10.63;;;;;;;7.47;61.63;100788.13;6075127;23;20029;-77
2023/05/15 01:19:44;;;;;;;28.33;10.75;;;;;;;7.47;61.86;100785.53;6093981;23;20903;-75
2023/05/15 01:22:36;;;;;;;31.95;9.90;;;;;;;7.48;61.58;100794.19;6071687;23;20414;-78
2023/05/15 01:25:29;;;;;;;21.13;9.07;;;;;;;7.45;61.22;100792.41;6071342;23;20022;-78
2023/05/15 01:29:11;;;;;;;22.35;10.98;;;;;;;7.45;61.98;100788.97;6080509;23;20019;-80
2023/05/15 01:32:26;;;;;;;21.30;12.48;;;;;;;7.49;61.66;100796.81;6047961;23;20026;-77
2023/05/15 01:39:11;;;;;;;27.25;10.02;;;;;;;7.38;61.41;100785.38;6028496;23;20041;-78
2023/05/15 01:42:33;;;;;;;36.88;20.80;;;;;;;7.46;61.71;100791.56;6096219;23;20070;-78
2023/05/15 01:45:48;;;;;;;25.80;11.18;;;;;;;7.44;61.73;100784.63;6082545;23;20399;-79
2023/05/15 01:48:43;;;;;;;32.72;14.70;;;;;;;7.42;61.42;100791.47;6073577;23;20014;-78
2023/05/15 01:51:16;;;;;;;47.25;25.13;;;;;;;7.48;61.79;100791.59;6098589;23;20077;-78
2023/05/15 01:55:19;;;;;;;38.75;22.02;;;;;;;7.56;61.81;100787.44;6005906;23;20030;-77
2023/05/15 01:57:53;;;;;;;34.20;20.33;;;;;;;7.68;61.98;100799.75;6031564;23;20026;-77
2023/05/15 02:00:30;;;;;;;33.55;12.73;;;;;;;7.65;61.52;100789.31;6051236;23;20049;-78
2023/05/15 02:03:49;;;;;;;40.70;13.98;;;;;;;7.73;61.90;100800.72;6091751;23;20022;-79
2023/05/15 02:06:26;;;;;;;31.95;12.98;;;;;;;7.70;61.53;100798.06;6050463;23;20018;-78
2023/05/15 02:09:29;;;;;;;36.90;16.50;;;;;;;7.79;61.32;100808.59;6072065;23;20096;-78
2023/05/15 02:12:04;;;;;;;39.50;16.35;;;;;;;7.82;62.05;100810.38;6072856;23;20022;-77
2023/05/15 02:14:32;;;;;;;34.10;18.70;;;;;;;7.94;61.70;100812.31;6086016;23;20066;-79
2023/05/15 02:17:09;;;;;;;36.75;16.25;;;;;;;8.06;61.98;100814.25;6071600;23;20033;-78
2023/05/15 02:19:38;;;;;;;36.03;17.35;;;;;;;8.12;61.52;100804.00;6071329;23;20032;-77
2023/05/15 02:22:05;;;;;;;31.40;16.00;;;;;;;7.92;61.55;100759.56;6017445;23;20030;-77
2023/05/15 02:24:32;;;;;;;33.63;17.48;;;;;;;8.21;61.57;100787.72;6095836;23;20363;-75
2023/05/15 02:27:52;;;;;;;35.00;18.20;;;;;;;8.40;61.48;100805.31;6048622;23;20445;-78
2023/05/15 02:30:34;;;;;;;36.25;17.70;;;;;;;8.49;61.74;100806.38;5956458;24;20036;-77
2023/05/15 02:38:35;;;;;;;32.78;19.98;;;;;;;8.77;61.20;100801.56;6097182;23;20147;-78
2023/05/15 02:42:08;;;;;;;37.90;18.15;;;;;;;8.89;61.44;100807.81;6099608;23;20037;-75
2023/05/15 02:44:51;;;;;;;29.10;17.05;;;;;;;8.94;61.02;100794.03;6093193;23;20022;-77
2023/05/15 02:47:49;;;;;;;37.30;18.52;;;;;;;9.00;61.29;100784.59;6098058;23;20030;-77
2023/05/15 02:59:10;;;;;;;31.52;19.38;;;;;;;9.72;60.74;100794.09;6073250;23;20018;-79
2023/05/15 03:01:41;;;;;;;34.63;19.75;;;;;;;9.85;60.46;100800.28;6073430;23;20029;-77
2023/05/15 03:08:02;;;;;;;32.72;18.60;;;;;;;10.26;60.32;100806.75;6063117;23;20026;-77
2023/05/15 03:16:10;;;;;;;29.67;17.10;;;;;;;10.72;59.42;100814.03;5981716;24;20035;-76
2023/05/15 03:23:52;;;;;;;26.73;15.77;;;;;;;11.12;58.47;100818.63;5982055;24;20467;-78
2023/05/15 03:26:19;;;;;;;27.92;17.42;;;;;;;11.27;58.58;100818.69;5982226;24;20028;-76
2023/05/15 03:28:52;;;;;;;29.73;17.25;;;;;;;11.38;58.33;100818.75;5958217;24;20028;-78
2023/05/15 03:31:25;;;;;;;33.47;17.23;;;;;;;11.50;57.84;100817.06;5981621;24;20071;-78
2023/05/15 03:34:26;;;;;;;37.55;19.52;;;;;;;11.72;57.45;100823.19;5942361;24;20028;-77
2023/05/15 03:37:24;;;;;;;24.48;16.38;;;;;;;11.80;56.86;100816.28;5964183;24;20358;-76
2023/05/15 03:40:10;;;;;;;25.65;16.30;;;;;;;12.13;56.91;100837.22;5981452;24;20536;-77
2023/05/15 03:43:31;;;;;;;23.98;15.30;;;;;;;12.38;56.34;100826.81;5942722;24;20024;-77
2023/05/15 03:46:03;;;;;;;24.80;15.93;;;;;;;12.61;55.79;100814.63;6058813;23;20470;-77
2023/05/15 03:48:35;;;;;;;25.13;15.40;;;;;;;12.84;55.44;100823.28;6072738;23;20022;-77
2023/05/15 03:52:11;;;;;;;21.92;14.43;;;;;;;13.10;54.73;100834.53;6040742;23;20019;-76
2023/05/15 03:58:53;;;;;;;23.15;13.48;;;;;;;13.59;53.56;100819.56;6012536;23;20024;-76
2023/05/15 04:01:36;;;;;;;21.02;13.10;;;;;;;13.83;53.00;100823.78;6009826;23;20023;-76
2023/05/15 04:04:25;;;;;;;17.38;12.30;;;;;;;13.95;52.37;100822.84;6009783;23;20460;-77
2023/05/15 04:06:54;;;;;;;19.75;13.38;;;;;;;14.09;52.12;100821.91;6010894;23;20027;-78
2023/05/15 04:09:26;;;;;;;20.48;14.45;;;;;;;14.20;51.69;100811.34;5986159;23;20048;-77
2023/05/15 04:12:45;;;;;;;17.42;11.93;;;;;;;14.54;51.34;100816.28;6005865;23;20102;-76
2023/05/15 04:15:36;;;;;;;17.92;11.05;;;;;;;14.82;51.01;100813.44;5983916;23;20053;-77
2023/05/15 04:18:10;;;;;;;14.38;10.50;;;;;;;14.99;50.38;100811.50;6010386;23;20028;-77
2023/05/15 04:24:32;;;;;;;13.70;8.75;;;;;;;15.46;49.54;100817.03;6096404;23;19921;-77
2023/05/15 04:30:46;;;;;;;14.07;7.80;;;;;;;15.82;48.40;100813.94;6072091;23;20355;-77
2023/05/15 04:37:03;;;;;;;12.05;7.70;;;;;;;16.25;47.40;100808.06;6071717;23;20022;-75
2023/05/15 04:39:43;;;;;;;9.25;7.22;;;;;;;16.52;46.33;100805.00;6060514;23;20022;-77
2023/05/15 04:42:25;;;;;;;8.55;7.13;;;;;;;16.60;46.27;100807.50;6097281;23;20093;-76
2023/05/15 04:45:02;;;;;;;10.77;6.47;;;;;;;16.70;45.36;100806.41;6101045;23;20427;-75
2023/05/15 04:47:39;;;;;;;10.50;7.05;;;;;;;16.94;45.24;100813.00;6072315;23;20026;-77
2023/05/15 04:50:31;;;;;;;10.85;6.72;;;;;;;17.07;44.79;100816.28;6097348;23;20018;-74
2023/05/15 04:53:11;;;;;;;10.45;6.43;;;;;;;17.23;44.45;100818.59;6096188;23;20022;-78
2023/05/15 04:55:42;;;;;;;9.02;5.07;;;;;;;17.32;44.01;100813.16;6097411;23;20101;-76
2023/05/15 04:58:16;;;;;;;6.72;4.70;;;;;;;17.54;43.76;100821.44;6096947;23;20027;-77
2023/05/15 05:01:14;;;;;;;8.27;4.82;;;;;;;17.74;42.72;100817.50;6096892;23;20307;-78
2023/05/15 05:04:30;;;;;;;10.82;4.72;;;;;;;17.88;42.25;100811.94;6084433;23;20029;-75
2023/05/15 05:07:11;;;;;;;8.18;4.57;;;;;;;17.99;42.07;100812.56;6071751;23;20474;-76
2023/05/15 05:10:20;;;;;;;4.80;3.97;;;;;;;18.12;41.40;100804.38;6047060;23;20037;-78
2023/05/15 05:12:49;;;;;;;6.82;4.22;;;;;;;18.38;41.11;100810.78;6071156;23;20029;-76
2023/05/15 05:15:46;;;;;;;7.73;4.10;;;;;;;18.62;40.81;100804.88;6096875;23;20082;-77
2023/05/15 05:24:36;;;;;;;8.85;3.58;;;;;;;19.92;39.10;100802.94;6008523;23;20078;-78
2023/05/15 05:27:27;;;;;;;7.20;3.75;;;;;;;20.34;37.91;100798.06;6008233;23;20099;-77
2023/05/15 05:30:07;;;;;;;12.50;3.88;;;;;;;20.58;37.27;100789.28;6085772;23;20026;-77
2023/05/15 05:32:39;;;;;;;6.68;3.20;;;;;;;20.99;37.16;100786.13;6067878;23;20029;-77
2023/05/15 05:35:21;;;;;;;5.00;2.75;;;;;;;21.80;35.58;100786.59;6070951;23;20089;-76
2023/05/15 05:37:48;;;;;;;7.10;2.80;;;;;;;23.57;34.02;100796.66;6071548;23;20082;-77
2023/05/15 05:40:44;;;;;;;8.80;4.80;;;;;;;25.50;31.75;100775.28;6071139;23;20058;-79
2023/05/15 05:44:47;;;;;;;6.55;2.80;;;;;;;28.39;28.26;100762.88;6008628;23;20151;-77
2023/05/15 05:47:34;;;;;;;3.60;2.70;;;;;;;29.49;26.68;100760.53;6020106;23;20364;-77
2023/05/15 05:50:33;;;;;;;2.78;2.30;;;;;;;31.18;24.31;100766.47;6019935;23;20027;-75
2023/05/15 05:53:22;;;;;;;4.15;2.17;;;;;;;32.19;23.01;100760.00;6013182;23;20432;-77
2023/05/15 05:55:49;;;;;;;3.60;2.00;;;;;;;33.17;20.90;100752.44;6016580;23;20023;-77
2023/05/15 05:58:18;;;;;;;2.78;2.30;;;;;;;33.65;20.82;100746.25;5990229;23;20178;-78
2023/05/15 06:01:16;;;;;;;;;;;;;;;34.88;20.16;100752.88;5983596;23;20401;-77
2023/05/15 06:03:47;;;;;;;3.47;2.75;;;;;;;35.95;18.95;100754.00;6040822;23;19946;-77
2023/05/15 06:06:19;;;;;;;3.95;2.20;;;;;;;37.12;18.25;100744.72;6022776;23;20103;-75
2023/05/15 06:08:47;;;;;;;5.63;2.45;;;;;;;37.77;16.55;100741.28;6034595;23;20060;-74
2023/05/15 06:11:36;;;;;;;3.50;2.80;;;;;;;38.13;16.22;100748.25;6011609;23;20023;-76
2023/05/15 06:14:02;;;;;;;6.57;2.40;;;;;;;38.29;15.25;100750.06;6011994;23;20023;-73
2023/05/15 06:16:38;;;;;;;3.00;2.47;;;;;;;38.59;15.35;100734.03;6033162;23;20063;-74
2023/05/15 06:19:09;;;;;;;7.18;2.85;;;;;;;39.10;14.35;100744.53;6034887;23;20433;-74
2023/05/15 06:21:36;;;;;;;3.42;2.15;;;;;;;39.96;13.43;100746.31;6011001;23;20131;-75
2023/05/15 06:24:17;;;;;;;4.22;2.90;;;;;;;39.54;14.31;100740.38;6028070;23;20553;-76
2023/05/15 06:26:50;;;;;;;5.57;2.70;;;;;;;40.28;13.06;100743.47;6036501;23;20026;-75
2023/05/15 06:29:28;;;;;;;6.53;2.90;;;;;;;38.03;13.12;100737.56;6091996;23;20022;-74
2023/05/15 06:32:00;;;;;;;2.83;2.25;;;;;;;38.54;13.93;100736.44;6092071;23;20379;-73
2023/05/15 06:34:28;;;;;;;5.35;2.28;;;;;;;39.46;13.33;100734.97;6091785;23;20526;-75
2023/05/15 06:36:55;;;;;;;2.83;2.07;;;;;;;38.83;13.42;100729.53;6090603;23;20488;-74
2023/05/15 06:39:25;;;;;;;4.00;2.10;;;;;;;37.12;13.63;100739.28;6090847;23;20098;-74
2023/05/15 06:42:02;;;;;;;5.00;2.70;;;;;;;34.95;14.61;100737.81;6090595;23;20126;-73
2023/05/15 06:44:32;;;;;;;5.22;2.30;;;;;;;35.23;15.34;100716.13;6043528;23;20051;-75
2023/05/15 06:46:59;;;;;;;4.18;1.85;;;;;;;36.00;14.56;100729.19;6059706;23;20022;-74
2023/05/15 06:49:27;;;;;;;4.22;2.13;;;;;;;34.68;14.40;100740.28;6092278;23;20052;-75
2023/05/15 06:51:55;;;;;;;4.25;2.10;;;;;;;32.95;15.89;100735.50;6064846;23;20062;-72
2023/05/15 06:54:21;;;;;;;3.10;1.85;;;;;;;32.32;16.80;100747.25;6092356;23;20026;-75
2023/05/15 06:56:48;;;;;;;3.95;1.60;;;;;;;31.95;16.98;100751.22;6086649;23;20117;-72
2023/05/15 06:59:26;;;;;;;5.47;1.70;;;;;;;31.47;17.35;100738.16;6058541;23;20518;-73
2023/05/15 07:01:57;;;;;;;4.18;1.85;;;;;;;30.73;17.38;100742.28;6067150;23;20014;-74
2023/05/15 07:04:26;;;;;;;2.40;1.83;;;;;;;30.33;17.89;100709.53;6091694;23;20026;-74
2023/05/15 07:06:55;;;;;;;3.63;1.70;;;;;;;30.12;17.92;100752.28;6065066;23;20018;-74
2023/05/15 07:09:32;;;;;;;2.80;1.70;;;;;;;31.49;17.79;100741.59;6068425;23;20022;-75
2023/05/15 07:12:05;;;;;;;2.28;1.55;;;;;;;34.86;16.43;100730.56;6066651;23;20042;-74
2023/05/15 07:14:46;;;;;;;3.30;1.50;;;;;;;36.34;14.71;100736.53;6092588;23;20025;-75
2023/05/15 07:17:32;;;;;;;3.55;1.50;;;;;;;35.08;15.36;100740.97;6051148;23;20515;-74
2023/05/15 07:19:58;;;;;;;3.10;1.48;;;;;;;35.08;15.02;100730.16;5995628;23;20022;-75
2023/05/15 07:22:29;;;;;;;5.18;1.42;;;;;;;37.10;14.33;100720.50;6090794;23;20328;-73
2023/05/15 07:24:55;;;;;;;5.03;1.90;;;;;;;39.42;13.11;100720.03;6044524;23;20083;-74
2023/05/15 07:27:22;;;;;;;2.60;1.30;;;;;;;41.09;12.04;100724.47;6067818;23;20459;-74
2023/05/15 07:29:48;;;;;;;2.47;1.20;;;;;;;42.32;11.20;100721.72;6095239;23;20026;-74
2023/05/15 07:32:19;;;;;;;2.80;1.20;;;;;;;41.45;11.66;100717.25;6094141;23;20105;-74
2023/05/15 07:38:58;;;;;;;3.50;1.20;;;;;;;44.38;9.87;100724.19;6092950;23;20058;-75
2023/05/15 07:41:51;;;;;;;2.25;1.27;;;;;;;43.96;9.93;100699.81;6062359;23;20470;-74
2023/05/15 07:44:22;;;;;;;1.67;1.20;;;;;;;44.92;9.34;100702.88;6067349;23;20109;-74
2023/05/15 07:46:55;;;;;;;3.53;1.80;;;;;;;45.02;8.37;100702.44;6091839;23;20364;-74
2023/05/15 07:49:26;;;;;;;3.67;1.30;;;;;;;43.20;8.86;100710.94;6091007;23;20018;-75
2023/05/15 07:52:29;;;;;;;2.08;1.05;;;;;;;39.46;10.17;100707.75;6054940;23;20399;-73
2023/05/15 07:54:55;;;;;;;2.25;1.00;;;;;;;38.13;11.33;100713.78;6092077;23;20025;-74
2023/05/15 07:57:27;;;;;;;3.65;1.20;;;;;;;36.86;11.39;100697.69;6088714;23;20033;-74
2023/05/15 07:59:57;;;;;;;6.57;1.45;;;;;;;36.02;12.29;100687.44;6084128;23;20550;-74
2023/05/15 08:02:23;;;;;;;2.10;1.10;;;;;;;37.01;11.92;100694.34;6067731;23;20022;-74
2023/05/15 08:04:50;;;;;;;4.10;1.20;;;;;;;37.03;11.96;100687.78;6067105;23;20029;-75
2023/05/15 08:07:17;;;;;;;3.15;1.20;;;;;;;39.00;11.47;100692.25;6067907;23;20030;-74
2023/05/15 08:09:47;;;;;;;1.17;1.08;;;;;;;41.22;10.30;100684.69;6093159;23;20021;-73
2023/05/15 08:13:03;;;;;;;1.88;1.40;;;;;;;40.25;10.30;100678.47;6092857;23;20018;-74
2023/05/15 08:15:30;;;;;;;4.55;1.50;;;;;;;41.05;10.37;100673.19;6091296;23;20054;-74
2023/05/15 08:17:59;;;;;;;1.77;1.15;;;;;;;42.02;10.00;100687.28;6043642;23;20026;-74
2023/05/15 08:20:28;;;;;;;2.22;1.30;;;;;;;43.07;9.80;100680.81;6066560;23;20032;-74
2023/05/15 08:23:00;;;;;;;1.75;1.27;;;;;;;43.57;9.19;100679.63;6037455;23;20173;-74
2023/05/15 08:25:29;;;;;;;4.82;1.40;;;;;;;44.23;8.60;100691.56;6069018;23;20533;-74
2023/05/15 08:28:01;;;;;;;1.37;1.17;;;;;;;45.07;8.40;100688.03;6067844;23;20085;-75
2023/05/15 08:30:35;;;;;;;4.20;1.25;;;;;;;45.65;8.11;100687.00;6092621;23;20018;-72
2023/05/15 08:33:07;;;;;;;1.95;1.30;;;;;;;44.37;8.00;100686.84;6092214;23;20155;-75
2023/05/15 08:35:44;;;;;;;3.90;1.20;;;;;;;43.93;7.96;100670.09;6066122;23;20019;-75
2023/05/15 08:38:22;;;;;;;3.25;1.20;;;;;;;45.02;7.61;100664.00;6091695;23;20026;-74
2023/05/15 08:41:05;;;;;;;3.53;1.40;;;;;;;44.90;7.43;100661.13;6091884;23;20029;-73
2023/05/15 08:43:38;;;;;;;3.45;1.30;;;;;;;43.60;8.40;100663.59;6045212;23;20041;-73
2023/05/15 08:46:27;;;;;;;2.22;1.15;;;;;;;44.87;8.17;100663.47;6084505;23;20054;-74
2023/05/15 08:48:58;;;;;;;7.78;1.58;;;;;;;45.16;7.65;100672.97;6091669;23;20081;-73
2023/05/15 08:51:24;;;;;;;2.72;1.33;;;;;;;44.08;7.57;100658.94;6062051;23;20022;-74
2023/05/15 08:53:54;;;;;;;2.35;1.30;;;;;;;43.16;7.67;100656.81;6066807;23;20025;-78
2023/05/15 08:56:56;;;;;;;1.88;1.00;;;;;;;41.06;8.88;100669.38;5994249;23;20058;-78
2023/05/15 08:59:38;;;;;;;1.27;1.10;;;;;;;40.24;9.25;100663.16;6032085;23;20023;-75
2023/05/15 09:02:20;;;;;;;1.25;1.13;;;;;;;40.77;8.69;100649.38;6011069;23;20095;-76
2023/05/15 09:05:07;;;;;;;7.47;1.35;;;;;;;40.56;9.24;100637.38;6009436;23;20110;-75
2023/05/15 09:07:40;;;;;;;6.60;1.40;;;;;;;40.39;9.43;100625.84;6031055;23;20023;-75
2023/05/15 09:10:15;;;;;;;2.03;1.08;;;;;;;40.20;9.53;100638.16;6031846;23;20462;-75
2023/05/15 09:13:06;;;;;;;2.80;1.15;;;;;;;40.69;8.93;100641.31;6027752;23;20472;-78
2023/05/15 09:15:33;;;;;;;1.48;1.00;;;;;;;40.54;8.54;100631.25;6007362;23;20120;-78
2023/05/15 09:18:00;;;;;;;3.08;1.10;;;;;;;40.49;8.82;100623.66;6030916;23;20467;-76
2023/05/15 09:20:54;;;;;;;4.78;4.15;;;;;;;40.80;9.25;100619.81;6007816;23;20031;-77
2023/05/15 09:23:27;;;;;;;2.03;1.13;;;;;;;41.68;8.21;100616.00;6010263;23;20031;-76
2023/05/15 09:25:57;;;;;;;1.58;1.13;;;;;;;42.56;8.21;100620.06;6031321;23;20149;-75
2023/05/15 09:28:28;;;;;;;;;;;;;;;42.86;8.51;100619.75;6080122;23;20458;-75
2023/05/15 09:31:02;;;;;;;1.92;1.15;;;;;;;43.71;7.88;100615.56;6066859;23;19953;-73
2023/05/15 09:33:36;;;;;;;2.05;1.30;;;;;;;44.07;7.55;100614.22;6067473;23;20080;-75
2023/05/15 09:36:08;;;;;;;2.13;1.10;;;;;;;44.06;7.68;100612.53;6090886;23;20510;-74
2023/05/15 09:38:41;;;;;;;2.08;1.00;;;;;;;43.27;7.43;100617.06;6066657;23;20023;-75
2023/05/15 09:41:10;;;;;;;2.35;1.20;;;;;;;43.04;7.62;100612.81;6067054;23;20121;-73
2023/05/15 09:43:39;;;;;;;1.35;0.90;;;;;;;42.68;8.47;100609.38;6091516;23;20022;-73
2023/05/15 09:46:07;;;;;;;1.65;1.10;;;;;;;43.72;7.57;100619.16;6066021;23;20022;-74
2023/05/15 09:48:34;;;;;;;2.45;1.45;;;;;;;44.77;7.50;100603.56;6092118;23;20392;-74
2023/05/15 09:51:04;;;;;;;1.92;1.25;;;;;;;42.65;7.48;100607.03;6090721;23;20105;-75
2023/05/15 09:53:39;;;;;;;2.55;1.08;;;;;;;39.61;9.20;100607.09;6065669;23;20018;-75
2023/05/15 09:56:09;;;;;;;4.20;1.65;;;;;;;40.55;8.79;100589.34;6065570;23;20037;-73
2023/05/15 09:58:52;;;;;;;2.42;1.05;;;;;;;42.45;8.12;100601.53;6087221;23;20347;-74
2023/05/15 10:01:31;;;;;;;7.00;1.37;;;;;;;42.99;7.98;100607.13;6065955;23;20045;-74
2023/05/15 10:04:02;;;;;;;20.33;1.98;;;;;;;43.34;7.35;100601.50;6088044;23;20030;-74
2023/05/15 10:06:38;;;;;;;1.92;1.00;;;;;;;44.53;7.32;100581.34;6065103;23;20026;-76
2023/05/15 10:09:09;;;;;;;43.25;4.68;;;;;;;45.67;7.08;100591.47;6092720;23;20029;-77
2023/05/15 10:11:37;;;;;;;6.75;2.00;;;;;;;45.84;6.80;100588.09;6065738;23;20060;-75
2023/05/15 10:14:21;;;;;;;17.83;4.35;;;;;;;44.83;6.98;100580.72;6068973;23;20030;-79
2023/05/15 10:16:48;;;;;;;49.83;8.57;;;;;;;44.35;6.61;100577.41;6091143;23;20026;-74
2023/05/15 10:19:51;;;;;;;3.25;1.50;;;;;;;41.30;8.48;100580.00;6068481;23;20026;-83
2023/05/15 10:22:41;;;;;;;1.63;1.35;;;;;;;40.58;8.01;100585.38;6064367;23;20033;-77
2023/05/15 10:25:20;;;;;;;3.03;1.30;;;;;;;39.52;8.61;100584.56;6066028;23;20093;-76
2023/05/15 10:28:00;;;;;;;1.98;1.30;;;;;;;37.45;9.84;100587.47;6066407;23;20101;-77
2023/05/15 10:30:50;;;;;;;5.65;1.30;;;;;;;35.83;10.63;100573.94;6047510;23;20038;-77
2023/05/15 10:33:54;;;;;;;2.03;1.00;;;;;;;35.08;11.20;100586.06;6069329;23;20038;-77
2023/05/15 10:36:25;;;;;;;3.90;1.33;;;;;;;34.38;11.42;100582.03;6091271;23;20361;-78
2023/05/15 10:38:59;;;;;;;2.80;1.35;;;;;;;33.76;12.17;100578.03;6067774;23;20022;-77
2023/05/15 10:41:40;;;;;;;2.45;1.10;;;;;;;33.13;12.32;100565.03;6072576;23;20023;-80
2023/05/15 10:44:18;;;;;;;6.40;1.85;;;;;;;32.17;12.89;100552.03;6082864;23;20196;-77
2023/05/15 10:47:34;;;;;;;2.67;1.35;;;;;;;31.20;13.74;100557.59;6046546;23;20034;-79
2023/05/15 10:50:23;;;;;;;6.50;1.77;;;;;;;30.68;14.25;100591.41;6090263;23;20026;-75
2023/05/15 10:52:54;;;;;;;8.02;1.70;;;;;;;29.64;15.12;100572.69;6044991;23;20041;-79
2023/05/15 10:56:00;;;;;;;2.58;1.60;;;;;;;29.31;15.68;100584.03;6095299;23;20029;-79
2023/05/15 10:59:07;;;;;;;3.45;1.65;;;;;;;29.01;15.50;100565.78;6092483;23;20081;-79
2023/05/15 11:01:43;;;;;;;3.30;1.30;;;;;;;28.82;16.11;100567.13;6047777;23;20029;-77
2023/05/15 11:04:34;;;;;;;1.63;1.23;;;;;;;28.75;16.53;100570.38;6069590;23;20046;-76
2023/05/15 11:07:34;;;;;;;1.65;1.13;;;;;;;28.35;16.56;100552.72;6093608;23;20034;-77
2023/05/15 11:10:36;;;;;;;5.28;1.27;;;;;;;27.93;17.05;100566.31;6092361;23;20112;-77
2023/05/15 11:14:17;;;;;;;1.00;0.90;;;;;;;27.46;17.56;100569.47;6093078;23;20363;-76
2023/05/15 11:17:04;;;;;;;2.00;1.02;;;;;;;27.14;17.36;100571.63;6085421;23;20050;-74
2023/05/15 11:20:10;;;;;;;2.50;1.20;;;;;;;26.68;18.04;100578.97;6064041;23;20599;-77
2023/05/15 11:23:03;;;;;;;2.90;1.10;;;;;;;25.73;18.06;100577.75;6064443;23;20022;-75
2023/05/15 11:25:48;;;;;;;3.45;1.20;;;;;;;25.40;18.90;100566.31;6052592;23;20018;-77
2023/05/15 11:28:24;;;;;;;2.70;1.30;;;;;;;25.36;19.05;100554.13;6093948;23;20030;-78
2023/05/15 11:31:15;;;;;;;2.53;1.00;;;;;;;25.48;19.01;100572.09;6094236;23;20026;-77
2023/05/15 11:34:04;;;;;;;3.63;1.13;;;;;;;25.08;18.92;100566.38;6070363;23;20022;-76
2023/05/15 11:36:55;;;;;;;2.03;1.17;;;;;;;24.64;19.35;100565.28;6069648;23;20088;-79
2023/05/15 11:39:38;;;;;;;4.03;1.10;;;;;;;24.54;19.36;100564.06;6049321;23;20026;-77
2023/05/15 11:42:21;;;;;;;1.88;1.20;;;;;;;24.55;19.26;100555.16;6047484;23;20037;-77
2023/05/15 11:48:38;;;;;;;2.33;1.02;;;;;;;23.87;19.48;100556.97;6077260;23;20030;-77
2023/05/15 11:51:21;;;;;;;2.28;1.10;;;;;;;23.51;20.18;100556.16;6068081;23;20161;-76
2023/05/15 11:53:51;;;;;;;;;;;;;;;23.48;20.62;100551.00;6094826;23;20042;-76
2023/05/15 11:56:33;;;;;;;2.15;1.02;;;;;;;23.61;20.38;100551.22;6071755;23;19925;-77
2023/05/15 11:59:15;;;;;;;2.15;1.30;;;;;;;23.73;20.63;100536.44;6057112;23;20022;-76
2023/05/15 12:01:48;;;;;;;3.90;1.40;;;;;;;23.81;20.58;100528.06;6069035;23;20026;-76
2023/05/15 12:04:42;;;;;;;2.92;1.65;;;;;;;24.06;20.67;100536.50;6072186;23;20097;-76
2023/05/15 12:07:38;;;;;;;3.63;1.27;;;;;;;24.11;20.67;100532.72;6092743;23;20034;-77
2023/05/15 12:10:18;;;;;;;1.73;1.25;;;;;;;23.90;20.92;100527.59;6067613;23;20257;-76
2023/05/15 12:13:06;;;;;;;1.75;1.10;;;;;;;23.71;21.04;100539.19;6093222;23;20018;-75
2023/05/15 12:16:07;;;;;;;1.75;1.20;;;;;;;23.66;20.94;100527.94;6093282;23;20054;-79
2023/05/15 12:20:03;;;;;;;2.97;1.00;;;;;;;23.53;21.10;100511.78;6089258;23;20394;-80
2023/05/15 12:23:23;;;;;;;8.20;2.45;;;;;;;23.38;21.16;100526.72;6079967;23;20026;-77
2023/05/15 12:25:59;;;;;;;3.17;1.40;;;;;;;23.12;21.86;100517.38;6093907;23;20363;-78
2023/05/15 12:28:35;;;;;;;4.10;1.20;;;;;;;22.87;21.74;100532.72;6079744;23;20026;-78
2023/05/15 12:31:25;;;;;;;2.78;1.20;;;;;;;22.62;22.32;100522.44;6052894;23;20034;-75
2023/05/15 12:34:59;;;;;;;1.48;1.10;;;;;;;22.56;22.50;100512.13;6087441;23;20022;-73
2023/05/15 12:37:35;;;;;;;4.05;1.20;;;;;;;22.58;22.35;100506.75;6091892;23;20018;-73
2023/05/15 12:40:10;;;;;;;4.45;1.23;;;;;;;22.47;22.30;100507.28;6044713;23;20113;-72
2023/05/15 12:42:41;;;;;;;2.90;1.30;;;;;;;22.29;22.79;100508.94;6091667;23;20026;-74
2023/05/15 12:45:52;;;;;;;1.98;1.20;;;;;;;22.22;22.86;100517.19;6065385;23;20037;-72
2023/05/15 12:48:20;;;;;;;5.88;1.15;;;;;;;22.26;23.03;100513.47;6092457;23;20085;-72
2023/05/15 12:50:50;;;;;;;1.75;1.20;;;;;;;22.24;23.24;100507.38;6043689;23;20105;-72
2023/05/15 12:53:20;;;;;;;2.30;1.33;;;;;;;22.25;22.95;100509.09;6067272;23;20052;-72
2023/05/15 12:56:17;;;;;;;3.22;1.20;;;;;;;22.19;23.43;100498.78;6092979;23;20355;-75
2023/05/15 12:58:53;;;;;;;2.10;1.33;;;;;;;22.23;23.19;100486.25;6069354;23;20081;-74
2023/05/15 13:01:22;;;;;;;1.90;1.20;;;;;;;22.24;23.47;100499.41;6044992;23;20034;-78
2023/05/15 13:04:09;;;;;;;3.72;1.20;;;;;;;22.05;23.51;100472.94;6091945;23;20030;-77
2023/05/15 13:06:46;;;;;;;3.83;1.40;;;;;;;22.15;23.59;100488.41;6093543;23;20113;-75
2023/05/15 13:09:51;;;;;;;2.28;1.20;;;;;;;22.21;23.38;100488.97;6092759;23;20048;-77
2023/05/15 13:13:01;;;;;;;2.97;1.23;;;;;;;22.04;23.74;100494.19;6045994;23;20078;-76
2023/05/15 13:16:00;;;;;;;3.92;3.22;;;;;;;22.01;23.64;100496.97;6051424;23;20025;-77
2023/05/15 13:18:53;;;;;;;2.03;1.17;;;;;;;22.04;23.59;100481.81;6062728;23;20042;-77
2023/05/15 13:21:30;;;;;;;2.53;1.05;;;;;;;22.01;23.86;100470.47;6068017;23;20049;-76
2023/05/15 13:24:28;;;;;;;3.58;1.27;;;;;;;22.08;23.65;100458.69;6066523;23;20073;-76
2023/05/15 13:27:30;;;;;;;1.48;1.20;;;;;;;22.04;23.73;100452.66;6094272;23;20482;-76
2023/05/15 13:29:58;;;;;;;1.40;1.10;;;;;;;22.11;23.68;100488.53;6043653;23;20026;-75
2023/05/15 13:32:37;;;;;;;5.03;1.20;;;;;;;22.04;23.91;100479.16;6068240;23;20105;-76
2023/05/15 13:47:09;;;;;;;1.83;1.25;;;;;;;21.78;23.68;100472.38;6033424;23;20280;-75
2023/05/15 13:49:41;;;;;;;6.05;1.50;;;;;;;21.79;23.70;100474.97;5983418;23;20027;-77